Time;durP1;ratioP1;P1;durP2;ratioP2;P2;SDS_P1;SDS_P2;PMS_P1;PMS_P2;Temp;Humidity;BMP_temperature;BMP_pressure;BME280_temperature;BME280_humidity;BME280_pressure;Samples;Min_cycle;Max_cycle;Signal;HPM_P1;HPM_P2
2022/10/04 00:02:29;;;;;;;18.10;13.50;;;9.60;99.90;;;;;;5048663;28;20433;-86
2022/10/04 00:05:02;;;;;;;18.60;13.40;;;9.60;99.90;;;;;;5045954;28;20440;-86
2022/10/04 00:07:33;;;;;;;24.13;13.83;;;9.60;99.90;;;;;;5045775;28;20937;-86
2022/10/04 00:10:03;;;;;;;14.30;12.80;;;9.60;99.90;;;;;;5063340;28;20456;-86
2022/10/04 00:12:35;;;;;;;15.83;13.60;;;9.60;99.90;;;;;;5056368;28;20487;-86
2022/10/04 00:15:05;;;;;;;15.23;13.43;;;9.60;99.90;;;;;;5047852;28;20452;-86
2022/10/04 00:17:34;;;;;;;20.30;13.43;;;9.60;99.90;;;;;;5050760;28;20438;-87
2022/10/04 00:20:04;;;;;;;16.73;13.10;;;9.60;99.90;;;;;;5067517;28;20465;-86
2022/10/04 00:22:32;;;;;;;17.00;13.53;;;9.50;99.90;;;;;;5057987;28;20959;-86
2022/10/04 00:25:21;;;;;;;15.80;13.27;;;9.50;99.90;;;;;;5063343;28;20446;-86
2022/10/04 00:28:24;;;;;;;20.33;13.17;;;9.50;99.90;;;;;;5059123;28;20429;-86
2022/10/04 00:31:23;;;;;;;16.17;12.80;;;9.50;99.90;;;;;;5055507;28;20466;-87
2022/10/04 00:33:53;;;;;;;18.50;12.10;;;9.50;99.90;;;;;;5055576;28;20999;-86
2022/10/04 00:36:55;;;;;;;19.80;13.17;;;9.50;99.90;;;;;;5046015;28;20449;-87
2022/10/04 00:39:41;;;;;;;29.53;12.00;;;9.50;99.90;;;;;;4984699;28;20866;-86
2022/10/04 00:42:42;;;;;;;18.80;14.23;;;9.40;99.90;;;;;;4984649;28;20877;-87
2022/10/04 00:45:29;;;;;;;13.00;11.70;;;9.40;99.90;;;;;;5037540;28;20449;-87
2022/10/04 00:48:15;;;;;;;16.47;12.70;;;9.40;99.90;;;;;;5048336;28;20445;-86
2022/10/04 00:50:46;;;;;;;17.07;12.90;;;9.40;99.90;;;;;;5057826;28;20827;-86
2022/10/04 00:53:25;;;;;;;18.83;13.43;;;9.40;99.90;;;;;;5060401;28;21116;-86
2022/10/04 00:55:58;;;;;;;19.73;15.00;;;9.30;99.90;;;;;;5050901;28;20447;-87
2022/10/04 00:58:29;;;;;;;18.87;12.97;;;9.30;99.90;;;;;;5047391;28;20441;-87
2022/10/04 01:00:58;;;;;;;14.73;13.13;;;9.20;99.90;;;;;;5048363;28;20811;-86
2022/10/04 01:03:30;;;;;;;18.33;13.50;;;9.30;99.90;;;;;;5047837;28;20460;-86
2022/10/04 01:06:00;;;;;;;19.63;12.30;;;9.30;99.90;;;;;;5044534;28;21068;-87
2022/10/04 01:08:32;;;;;;;14.40;12.13;;;9.20;99.90;;;;;;5047389;28;20456;-87
2022/10/04 01:11:01;;;;;;;17.17;11.77;;;9.30;99.90;;;;;;5048236;28;20459;-87
2022/10/04 01:13:31;;;;;;;19.07;12.00;;;9.30;99.90;;;;;;5048292;28;20480;-87
2022/10/04 01:16:03;;;;;;;20.17;13.30;;;9.20;99.90;;;;;;5048353;28;20469;-86
2022/10/04 01:18:31;;;;;;;20.40;13.43;;;9.10;99.90;;;;;;5048299;28;20502;-86
2022/10/04 01:21:02;;;;;;;16.20;12.63;;;9.00;99.90;;;;;;5049386;28;20825;-86
2022/10/04 01:23:37;;;;;;;18.40;12.53;;;9.00;99.90;;;;;;5048228;28;20444;-86
2022/10/04 01:26:06;;;;;;;20.83;11.63;;;9.10;99.90;;;;;;5048691;28;21729;-86
2022/10/04 01:28:33;;;;;;;13.73;12.23;;;9.00;99.90;;;;;;5046824;28;20437;-86
2022/10/04 01:31:00;;;;;;;15.40;12.30;;;9.00;99.90;;;;;;5047507;28;20961;-87
2022/10/04 01:33:28;;;;;;;17.27;13.17;;;8.90;99.90;;;;;;5047898;28;20483;-87
2022/10/04 01:35:55;;;;;;;14.50;11.93;;;9.00;99.90;;;;;;5048000;28;20455;-87
2022/10/04 01:38:22;;;;;;;14.47;11.70;;;8.90;99.90;;;;;;5047327;28;20499;-87
2022/10/04 01:40:58;;;;;;;15.30;11.53;;;8.90;99.90;;;;;;5047523;28;20472;-87
2022/10/04 01:43:31;;;;;;;14.10;12.40;;;8.80;99.90;;;;;;5045696;28;20447;-87
2022/10/04 01:46:03;;;;;;;13.90;11.07;;;8.90;99.90;;;;;;5043040;28;20441;-87
2022/10/04 01:48:36;;;;;;;16.40;11.43;;;8.90;99.90;;;;;;5046646;28;20532;-87
2022/10/04 01:51:08;;;;;;;14.00;11.50;;;8.90;99.90;;;;;;5046628;28;20464;-87
2022/10/04 01:53:40;;;;;;;13.27;11.87;;;8.80;99.90;;;;;;5047435;28;20491;-87
2022/10/04 01:56:13;;;;;;;13.20;11.53;;;8.80;99.90;;;;;;5046265;28;20440;-87
2022/10/04 01:58:43;;;;;;;15.80;11.63;;;8.80;99.90;;;;;;5045571;28;20440;-87
2022/10/04 02:01:14;;;;;;;14.13;11.77;;;8.80;99.90;;;;;;5045768;28;20832;-87
2022/10/04 02:03:45;;;;;;;14.57;11.53;;;8.80;99.90;;;;;;5043491;28;20528;-87
2022/10/04 02:06:14;;;;;;;15.20;12.40;;;8.70;99.90;;;;;;5058289;28;20417;-87
2022/10/04 02:08:48;;;;;;;17.50;12.10;;;8.80;99.90;;;;;;5069712;28;20441;-88
2022/10/04 02:11:20;;;;;;;17.27;12.33;;;8.70;99.90;;;;;;5050043;28;20439;-87
2022/10/04 02:13:48;;;;;;;14.17;12.37;;;8.70;99.90;;;;;;5046044;28;20588;-87
2022/10/04 02:16:16;;;;;;;14.67;12.13;;;8.70;99.90;;;;;;5046444;28;20441;-87
2022/10/04 02:18:44;;;;;;;14.97;12.60;;;8.60;99.90;;;;;;5046572;28;20457;-86
2022/10/04 02:21:13;;;;;;;18.60;12.80;;;8.60;99.90;;;;;;5047413;28;20456;-87
2022/10/04 02:23:42;;;;;;;16.53;12.70;;;8.60;99.90;;;;;;5047678;28;20440;-87
2022/10/04 02:26:10;;;;;;;12.50;11.30;;;8.60;99.90;;;;;;5052773;28;20520;-87
2022/10/04 02:28:38;;;;;;;13.17;11.70;;;8.60;99.90;;;;;;5059404;28;20437;-87
2022/10/04 02:33:55;;;;;;;14.97;11.90;;;8.60;99.90;;;;;;5065504;28;20487;-87
2022/10/04 02:36:26;;;;;;;15.63;12.67;;;8.50;99.90;;;;;;5056464;28;20437;-87
2022/10/04 02:39:01;;;;;;;16.40;12.80;;;8.50;99.90;;;;;;5050049;28;20437;-87
2022/10/04 02:41:31;;;;;;;14.53;11.13;;;8.60;99.90;;;;;;5043653;28;20445;-87
2022/10/04 02:44:04;;;;;;;14.63;11.47;;;8.50;99.90;;;;;;5045101;28;20806;-87
2022/10/04 02:46:35;;;;;;;15.53;13.17;;;8.50;99.90;;;;;;5045039;28;20495;-87
2022/10/04 02:49:10;;;;;;;14.30;11.00;;;8.50;99.90;;;;;;5046105;28;20525;-87
2022/10/04 02:51:40;;;;;;;12.00;10.23;;;8.50;99.90;;;;;;5044538;28;20437;-87
2022/10/04 02:54:15;;;;;;;15.70;11.93;;;8.50;99.90;;;;;;5045186;28;20503;-87
2022/10/04 02:56:43;;;;;;;17.07;11.67;;;8.50;99.90;;;;;;5051266;28;20443;-87
2022/10/04 02:59:16;;;;;;;14.70;11.70;;;8.50;99.90;;;;;;5066736;28;20465;-87
2022/10/04 03:01:50;;;;;;;12.40;11.20;;;8.50;99.90;;;;;;5055436;28;20461;-87
2022/10/04 03:04:19;;;;;;;14.10;11.90;;;8.40;99.90;;;;;;5058285;28;20427;-87
2022/10/04 03:06:47;;;;;;;13.60;11.93;;;8.40;99.90;;;;;;5057960;28;20875;-87
2022/10/04 03:09:15;;;;;;;14.40;10.93;;;8.40;99.90;;;;;;5047873;28;20495;-87
2022/10/04 03:11:42;;;;;;;14.03;12.20;;;8.40;99.90;;;;;;5049855;28;21039;-87
2022/10/04 03:14:14;;;;;;;13.03;11.50;;;8.40;99.90;;;;;;5074463;28;20472;-87
2022/10/04 03:16:44;;;;;;;11.63;10.37;;;8.40;99.90;;;;;;5057416;28;20937;-87
2022/10/04 03:19:11;;;;;;;13.17;11.67;;;8.30;99.90;;;;;;5047440;28;20468;-87
2022/10/04 03:21:40;;;;;;;19.70;12.63;;;8.30;99.90;;;;;;5046030;28;20445;-87
2022/10/04 03:24:09;;;;;;;13.20;10.47;;;8.30;99.90;;;;;;5045708;28;20982;-87
2022/10/04 03:26:40;;;;;;;13.43;12.00;;;8.30;99.90;;;;;;5058682;28;20425;-86
2022/10/04 03:29:09;;;;;;;13.10;10.80;;;8.30;99.90;;;;;;5068874;28;20503;-87
2022/10/04 03:31:42;;;;;;;12.30;9.87;;;8.30;99.90;;;;;;5063400;28;21124;-87
2022/10/04 03:34:14;;;;;;;15.10;10.53;;;8.30;99.90;;;;;;5045268;28;20475;-87
2022/10/04 03:36:41;;;;;;;13.43;10.93;;;8.30;99.90;;;;;;5041360;28;20437;-87
2022/10/04 03:39:11;;;;;;;11.90;10.40;;;8.30;99.90;;;;;;5049342;28;20457;-87
2022/10/04 03:41:39;;;;;;;11.57;10.40;;;8.30;99.90;;;;;;5046891;28;20440;-87
2022/10/04 03:44:11;;;;;;;13.03;10.47;;;8.30;99.90;;;;;;5047051;28;20433;-87
2022/10/04 03:46:40;;;;;;;11.50;10.40;;;8.20;99.90;;;;;;5045333;28;20854;-88
2022/10/04 03:49:08;;;;;;;12.67;10.27;;;8.20;99.90;;;;;;5044236;28;20425;-87
2022/10/04 03:51:35;;;;;;;13.50;11.47;;;8.30;99.90;;;;;;5046760;28;20437;-87
2022/10/04 03:54:05;;;;;;;14.47;11.23;;;8.20;99.90;;;;;;5047507;28;20512;-88
2022/10/04 03:56:35;;;;;;;14.00;10.90;;;8.30;99.90;;;;;;5046873;28;20537;-86
2022/10/04 03:59:04;;;;;;;13.17;11.03;;;8.20;99.90;;;;;;5056655;28;20445;-87
2022/10/04 04:01:38;;;;;;;13.13;10.53;;;8.20;99.90;;;;;;5058766;28;20436;-86
2022/10/04 04:04:17;;;;;;;13.10;10.87;;;8.20;99.90;;;;;;5045956;28;20441;-87
2022/10/04 04:06:51;;;;;;;14.20;11.67;;;8.20;99.90;;;;;;5040342;28;20444;-86
2022/10/04 04:09:23;;;;;;;12.67;10.93;;;8.20;99.90;;;;;;5044670;28;20472;-86
2022/10/04 04:11:51;;;;;;;18.60;11.60;;;8.20;99.90;;;;;;5045388;28;20840;-86
2022/10/04 04:14:23;;;;;;;15.17;11.30;;;8.20;99.90;;;;;;5046644;28;20477;-87
2022/10/04 04:16:51;;;;;;;14.23;11.00;;;8.20;99.90;;;;;;5045275;28;20448;-87
2022/10/04 04:19:24;;;;;;;14.67;10.67;;;8.20;99.90;;;;;;5045400;28;20600;-87
2022/10/04 04:21:54;;;;;;;13.73;10.67;;;8.10;99.90;;;;;;5051657;28;20495;-87
2022/10/04 04:24:26;;;;;;;11.83;10.63;;;8.10;99.90;;;;;;5050030;28;20431;-87
2022/10/04 04:26:57;;;;;;;10.63;9.63;;;8.10;99.90;;;;;;5052179;28;20433;-86
2022/10/04 04:29:28;;;;;;;12.70;9.37;;;8.10;99.90;;;;;;5050846;28;20826;-86
2022/10/04 04:31:58;;;;;;;13.47;9.33;;;8.10;99.90;;;;;;5047152;28;20830;-87
2022/10/04 04:34:29;;;;;;;13.50;10.60;;;8.10;99.90;;;;;;5045429;28;20548;-86
2022/10/04 04:36:58;;;;;;;14.53;11.57;;;8.00;99.90;;;;;;5050391;28;20516;-86
2022/10/04 04:39:37;;;;;;;13.77;12.30;;;8.00;99.90;;;;;;5047186;28;20464;-86
2022/10/04 04:42:09;;;;;;;18.80;10.73;;;8.00;99.90;;;;;;5051748;28;20436;-87
2022/10/04 04:44:38;;;;;;;18.97;12.03;;;8.00;99.90;;;;;;5051871;28;20804;-85
2022/10/04 04:47:08;;;;;;;11.17;9.93;;;8.00;99.90;;;;;;5051738;28;20945;-87
2022/10/04 04:49:39;;;;;;;11.90;10.77;;;8.00;99.90;;;;;;5049211;28;20544;-87
2022/10/04 04:52:15;;;;;;;16.27;12.20;;;8.00;99.90;;;;;;5051720;28;20449;-87
2022/10/04 04:54:45;;;;;;;16.17;12.73;;;7.90;99.90;;;;;;5050223;28;20472;-87
2022/10/04 04:57:15;;;;;;;18.63;12.93;;;8.00;99.90;;;;;;5061466;28;20437;-85
2022/10/04 04:59:45;;;;;;;13.90;12.10;;;7.90;99.90;;;;;;5058127;28;20444;-86
2022/10/04 05:02:30;;;;;;;16.17;12.47;;;7.90;99.90;;;;;;5052760;28;20437;-89
2022/10/04 05:05:19;;;;;;;17.47;11.43;;;7.90;99.90;;;;;;5050060;28;20433;-88
2022/10/04 05:07:46;;;;;;;15.73;11.50;;;7.80;99.90;;;;;;5052778;28;20808;-87
2022/10/04 05:10:30;;;;;;;14.13;9.80;;;7.80;99.90;;;;;;5050670;28;20464;-87
2022/10/04 05:12:58;;;;;;;13.97;10.40;;;7.80;99.90;;;;;;5048512;28;20480;-88
2022/10/04 05:15:26;;;;;;;14.73;11.23;;;7.80;99.90;;;;;;5051824;28;20574;-88
2022/10/04 05:17:53;;;;;;;15.27;12.20;;;7.80;99.90;;;;;;5049575;28;20449;-88
2022/10/04 05:20:21;;;;;;;13.60;11.87;;;7.80;99.90;;;;;;5054095;28;20473;-87
2022/10/04 05:22:50;;;;;;;18.30;13.00;;;7.80;99.90;;;;;;5052025;28;21875;-87
2022/10/04 05:25:26;;;;;;;15.17;11.40;;;7.80;99.90;;;;;;5049119;28;20441;-87
2022/10/04 05:27:54;;;;;;;14.20;12.00;;;7.90;99.90;;;;;;5050365;28;20889;-88
2022/10/04 05:30:33;;;;;;;17.93;11.40;;;7.80;99.90;;;;;;5047932;28;20465;-86
2022/10/04 05:33:02;;;;;;;14.60;11.60;;;7.80;99.90;;;;;;5057430;28;20438;-88
2022/10/04 05:35:42;;;;;;;13.63;10.47;;;7.80;99.90;;;;;;5066549;28;20418;-86
2022/10/04 05:38:16;;;;;;;14.60;11.67;;;7.90;99.90;;;;;;5069839;28;20433;-85
2022/10/04 05:40:49;;;;;;;15.40;12.30;;;7.90;99.90;;;;;;5060980;28;20460;-86
2022/10/04 05:43:29;;;;;;;12.57;11.27;;;7.90;99.90;;;;;;5052869;28;20452;-86
2022/10/04 05:46:27;;;;;;;15.47;11.77;;;7.90;99.90;;;;;;5054236;28;20436;-87
2022/10/04 05:48:58;;;;;;;15.50;11.50;;;8.00;99.90;;;;;;4990223;28;20436;-87
2022/10/04 05:51:28;;;;;;;15.00;10.93;;;8.00;99.90;;;;;;5037508;28;20456;-86
2022/10/04 05:53:59;;;;;;;15.27;12.00;;;8.10;99.90;;;;;;5057146;28;20939;-86
2022/10/04 05:56:54;;;;;;;13.30;11.87;;;8.20;99.90;;;;;;5055089;28;20444;-87
2022/10/04 05:59:39;;;;;;;14.23;12.27;;;8.20;99.90;;;;;;5054554;28;20507;-87
2022/10/04 06:02:18;;;;;;;27.03;13.57;;;8.20;99.90;;;;;;5055733;28;20453;-87
2022/10/04 06:04:55;;;;;;;16.93;11.70;;;8.20;99.90;;;;;;5069172;28;20428;-88
2022/10/04 06:07:29;;;;;;;16.10;13.67;;;8.30;99.90;;;;;;5076668;28;20444;-87
2022/10/04 06:10:25;;;;;;;17.00;12.30;;;8.30;99.90;;;;;;5062549;28;20825;-87
2022/10/04 06:12:56;;;;;;;15.30;13.00;;;8.30;99.90;;;;;;5056308;28;20490;-87
2022/10/04 06:15:52;;;;;;;24.30;13.13;;;8.30;99.90;;;;;;5054674;28;20496;-87
2022/10/04 06:18:38;;;;;;;22.93;14.63;;;8.40;99.90;;;;;;5054412;28;20551;-87
2022/10/04 06:21:20;;;;;;;18.93;13.30;;;8.40;99.90;;;;;;5073649;28;20469;-87
2022/10/04 06:23:54;;;;;;;20.57;12.57;;;8.50;99.90;;;;;;5064852;28;20448;-87
2022/10/04 06:26:24;;;;;;;23.13;14.57;;;8.60;99.90;;;;;;5069498;28;20450;-87
2022/10/04 06:28:55;;;;;;;16.33;12.13;;;8.70;99.90;;;;;;5063261;28;20440;-87
2022/10/04 06:31:58;;;;;;;15.77;10.70;;;8.70;99.90;;;;;;5060573;28;20451;-87
2022/10/04 06:34:40;;;;;;;15.40;12.03;;;8.70;99.90;;;;;;5054154;28;20480;-87
2022/10/04 06:37:26;;;;;;;15.80;11.43;;;8.80;99.90;;;;;;5054069;28;20452;-87
2022/10/04 06:40:25;;;;;;;14.30;11.10;;;8.80;99.90;;;;;;5060704;28;20468;-87
2022/10/04 06:43:04;;;;;;;16.60;13.37;;;8.90;99.90;;;;;;5053435;28;20533;-87
2022/10/04 06:45:49;;;;;;;14.40;12.90;;;9.00;99.90;;;;;;5055108;28;20447;-87
2022/10/04 06:48:57;;;;;;;14.60;12.07;;;9.10;99.90;;;;;;5054816;28;20449;-86
2022/10/04 06:51:39;;;;;;;16.70;12.83;;;9.20;99.90;;;;;;5043429;28;20460;-86
2022/10/04 06:54:21;;;;;;;17.23;13.13;;;9.30;99.90;;;;;;5053956;28;20549;-87
2022/10/04 06:57:08;;;;;;;19.73;13.93;;;9.40;99.90;;;;;;5053408;28;20942;-86
2022/10/04 06:59:57;;;;;;;17.17;12.23;;;9.40;99.90;;;;;;5053281;28;20500;-86
2022/10/04 07:02:30;;;;;;;22.83;13.13;;;9.50;99.90;;;;;;5053250;28;20818;-86
2022/10/04 07:05:00;;;;;;;12.47;11.07;;;9.70;99.90;;;;;;5052775;28;20981;-86
2022/10/04 07:07:35;;;;;;;12.93;10.83;;;9.80;99.90;;;;;;5053302;28;20533;-86
2022/10/04 07:10:18;;;;;;;10.03;8.93;;;9.80;99.90;;;;;;5052861;28;20480;-87
2022/10/04 07:12:52;;;;;;;10.57;9.47;;;9.90;99.90;;;;;;5076439;28;20447;-85
2022/10/04 07:15:24;;;;;;;10.73;9.53;;;10.00;99.90;;;;;;5077319;28;20464;-86
2022/10/04 07:17:52;;;;;;;16.87;10.50;;;10.10;99.90;;;;;;5058397;28;20445;-86
2022/10/04 07:20:24;;;;;;;10.17;9.07;;;10.20;99.90;;;;;;5073448;28;20453;-86
2022/10/04 07:22:58;;;;;;;9.07;8.17;;;10.30;99.90;;;;;;5071974;28;20903;-86
2022/10/04 07:25:29;;;;;;;9.83;8.67;;;10.40;99.90;;;;;;5054573;28;20528;-86
2022/10/04 07:30:52;;;;;;;10.63;8.80;;;10.50;99.90;;;;;;5059587;28;21019;-86
2022/10/04 07:33:23;;;;;;;10.40;8.60;;;10.60;99.90;;;;;;5053373;28;20962;-87
2022/10/04 07:35:54;;;;;;;9.97;8.27;;;10.80;99.90;;;;;;5052327;28;20870;-86
2022/10/04 07:38:26;;;;;;;10.43;9.00;;;10.80;99.90;;;;;;5054313;28;20818;-86
2022/10/04 07:41:08;;;;;;;10.20;8.00;;;10.90;99.90;;;;;;5069702;28;20453;-86
2022/10/04 07:43:46;;;;;;;12.20;8.30;;;11.10;99.90;;;;;;5059147;28;20445;-86
2022/10/04 07:46:21;;;;;;;11.20;8.63;;;11.20;99.90;;;;;;5053872;28;20445;-87
2022/10/04 07:48:48;;;;;;;13.03;8.73;;;11.20;99.90;;;;;;5053848;28;20444;-87
2022/10/04 07:51:23;;;;;;;11.20;8.13;;;11.40;99.90;;;;;;5053159;28;20444;-86
2022/10/04 07:53:55;;;;;;;7.90;7.10;;;11.60;99.90;;;;;;5054564;28;20976;-87
2022/10/04 07:56:27;;;;;;;8.73;7.93;;;11.80;99.90;;;;;;5057658;28;20652;-86
2022/10/04 07:59:16;;;;;;;7.87;6.93;;;11.90;99.90;;;;;;5057569;28;20449;-87
2022/10/04 08:01:47;;;;;;;9.20;8.27;;;12.00;99.90;;;;;;5057723;28;20493;-87
2022/10/04 08:04:30;;;;;;;11.27;8.60;;;11.90;99.90;;;;;;5054924;28;20468;-87
2022/10/04 08:07:00;;;;;;;10.57;9.27;;;11.90;99.90;;;;;;5045348;28;20453;-87
2022/10/04 08:09:47;;;;;;;12.17;8.77;;;12.10;99.90;;;;;;5038534;28;20477;-87
2022/10/04 08:12:21;;;;;;;13.00;9.33;;;12.20;99.90;;;;;;5056874;28;20445;-87
2022/10/04 08:14:55;;;;;;;15.13;9.67;;;12.50;99.90;;;;;;5057551;28;20477;-88
2022/10/04 08:17:51;;;;;;;10.73;8.93;;;12.60;99.90;;;;;;5052334;28;20448;-87
2022/10/04 08:20:28;;;;;;;12.23;10.23;;;12.50;99.90;;;;;;5045636;28;20469;-87
2022/10/04 08:23:07;;;;;;;11.83;7.70;;;12.80;99.90;;;;;;5038255;28;20449;-87
2022/10/04 08:25:42;;;;;;;11.03;8.53;;;12.80;99.90;;;;;;5037131;28;20448;-87
2022/10/04 08:31:27;;;;;;;10.93;9.30;;;13.00;99.90;;;;;;5036753;28;20441;-88
2022/10/04 08:34:08;;;;;;;10.93;9.07;;;12.90;99.90;;;;;;5051072;28;20448;-87
2022/10/04 08:36:52;;;;;;;13.23;9.10;;;13.00;99.90;;;;;;5058414;28;20459;-88
2022/10/04 08:39:30;;;;;;;13.67;10.10;;;13.00;99.90;;;;;;5066295;28;20472;-79
2022/10/04 08:42:40;;;;;;;10.27;8.90;;;13.30;99.90;;;;;;5074810;28;20454;-79
2022/10/04 08:45:44;;;;;;;11.70;9.37;;;13.60;99.90;;;;;;5058361;28;20451;-89
2022/10/04 08:48:42;;;;;;;13.10;8.30;;;13.90;99.90;;;;;;5064690;28;20434;-86
2022/10/04 08:51:39;;;;;;;10.17;7.67;;;14.40;99.90;;;;;;5079108;28;20480;-87
2022/10/04 08:54:55;;;;;;;10.83;7.50;;;14.40;99.90;;;;;;5076849;28;20437;-89
2022/10/04 08:58:02;;;;;;;10.63;8.70;;;14.90;99.90;;;;;;5058144;28;20483;-88
2022/10/04 09:00:41;;;;;;;9.13;7.60;;;15.00;99.90;;;;;;5038796;28;20842;-84
2022/10/04 09:04:01;;;;;;;11.90;7.50;;;15.20;99.90;;;;;;5057243;28;20441;-87
2022/10/04 09:06:42;;;;;;;8.40;6.53;;;15.90;99.90;;;;;;5059697;28;20473;-87
2022/10/04 09:09:46;;;;;;;8.20;7.40;;;16.70;99.90;;;;;;5056680;28;20437;-87
2022/10/04 09:12:49;;;;;;;8.93;6.30;;;17.40;99.50;;;;;;5063176;28;20444;-88
2022/10/04 09:15:51;;;;;;;8.63;6.87;;;18.40;96.10;;;;;;5076209;28;20491;-90
2022/10/04 09:18:22;;;;;;;9.90;6.27;;;19.10;95.10;;;;;;5056690;28;20444;-89
2022/10/04 09:21:01;;;;;;;9.10;6.13;;;20.00;93.60;;;;;;5056423;28;20480;-89
2022/10/04 09:24:12;;;;;;;6.13;5.53;;;20.80;91.40;;;;;;5057769;28;20437;-90
2022/10/04 09:26:45;;;;;;;8.70;6.13;;;22.20;85.90;;;;;;4994915;28;20832;-89
2022/10/04 09:29:26;;;;;;;8.07;6.43;;;22.50;83.20;;;;;;4994637;28;20467;-89
2022/10/04 09:32:37;;;;;;;6.17;5.57;;;22.60;81.60;;;;;;5034711;28;20476;-89
2022/10/04 09:35:36;;;;;;;7.00;6.20;;;21.70;80.60;;;;;;5050092;28;20523;-86
2022/10/04 09:38:23;;;;;;;7.20;5.70;;;22.20;81.20;;;;;;5066159;28;20455;-88
2022/10/04 09:41:04;;;;;;;5.43;4.93;;;22.30;79.60;;;;;;5076802;28;20456;-88
2022/10/04 09:44:07;;;;;;;7.50;5.37;;;23.20;77.60;;;;;;5056544;28;20445;-88
2022/10/04 09:46:56;;;;;;;6.70;5.10;;;23.50;74.80;;;;;;5054459;28;20443;-86
2022/10/04 09:49:44;;;;;;;7.50;5.63;;;24.00;72.90;;;;;;5055658;28;20461;-89
2022/10/04 09:52:23;;;;;;;6.00;5.40;;;24.60;72.70;;;;;;5062537;28;20442;-88
2022/10/04 09:55:22;;;;;;;10.70;5.83;;;25.00;67.20;;;;;;5067668;28;20836;-88
2022/10/04 09:58:08;;;;;;;6.57;4.67;;;24.80;67.10;;;;;;5055064;28;20452;-89
2022/10/04 10:00:44;;;;;;;9.13;5.37;;;24.30;67.30;;;;;;5055353;28;20906;-91
2022/10/04 10:03:42;;;;;;;6.53;4.83;;;24.50;68.00;;;;;;5056932;28;20453;-90
2022/10/04 10:06:30;;;;;;;5.17;4.67;;;25.40;65.70;;;;;;5077674;28;20539;-89
2022/10/04 10:09:08;;;;;;;10.23;4.73;;;25.00;66.00;;;;;;5062346;28;20895;-89
2022/10/04 10:15:00;;;;;;;5.87;4.50;;;25.40;63.90;;;;;;5077735;28;20444;-87
2022/10/04 10:17:36;;;;;;;8.73;4.20;;;23.90;66.40;;;;;;5077345;28;20463;-87
2022/10/04 10:20:48;;;;;;;7.57;4.70;;;23.80;66.20;;;;;;5076931;28;20474;-88
2022/10/04 10:23:33;;;;;;;5.60;4.23;;;23.70;67.80;;;;;;5033520;28;20446;-87
2022/10/04 10:26:41;;;;;;;6.33;4.33;;;24.00;66.30;;;;;;5072882;28;20443;-86
2022/10/04 10:29:28;;;;;;;6.30;3.70;;;24.70;67.00;;;;;;5062841;28;20639;-88
2022/10/04 10:32:22;;;;;;;4.63;3.60;;;25.30;64.00;;;;;;5056115;28;20446;-88
2022/10/04 10:35:16;;;;;;;4.90;3.27;;;26.40;61.30;;;;;;5051330;28;20491;-88
2022/10/04 10:38:18;;;;;;;6.53;3.60;;;27.50;58.60;;;;;;5054180;28;20825;-88
2022/10/04 10:41:04;;;;;;;7.73;3.63;;;27.00;58.40;;;;;;5018334;28;20530;-87
2022/10/04 10:43:45;;;;;;;6.77;4.73;;;27.60;57.90;;;;;;5064805;28;20442;-86
2022/10/04 10:46:37;;;;;;;8.70;4.30;;;27.00;57.80;;;;;;5078068;28;20432;-86
2022/10/04 10:49:25;;;;;;;12.73;4.00;;;27.20;58.90;;;;;;5070389;28;20437;-87
2022/10/04 10:52:16;;;;;;;7.90;4.70;;;27.30;57.40;;;;;;5063194;28;20452;-86
2022/10/04 10:55:24;;;;;;;4.80;3.60;;;26.00;59.10;;;;;;5059737;28;20577;-87
2022/10/04 10:58:34;;;;;;;6.90;4.40;;;25.80;59.80;;;;;;5044909;28;20459;-86
2022/10/04 11:01:31;;;;;;;6.00;4.13;;;25.90;60.80;;;;;;5059381;28;20557;-87
2022/10/04 11:04:37;;;;;;;7.00;4.20;;;25.20;63.30;;;;;;5057202;28;20824;-86
2022/10/04 11:07:28;;;;;;;4.93;4.43;;;24.30;63.60;;;;;;5035105;28;20456;-86
2022/10/04 11:10:15;;;;;;;5.13;4.40;;;24.10;64.20;;;;;;5054762;28;20488;-87
2022/10/04 11:13:10;;;;;;;5.63;4.70;;;25.40;64.50;;;;;;5055155;28;20486;-87
2022/10/04 11:15:48;;;;;;;6.40;4.03;;;27.50;58.60;;;;;;5054329;28;20524;-87
2022/10/04 11:19:05;;;;;;;6.53;4.17;;;28.40;56.00;;;;;;5054136;28;20452;-87
2022/10/04 11:22:24;;;;;;;10.00;4.67;;;29.60;55.00;;;;;;5076098;28;20446;-87
2022/10/04 11:25:24;;;;;;;4.57;3.33;;;30.30;53.80;;;;;;5070171;28;20455;-87
2022/10/04 11:28:01;;;;;;;7.40;4.30;;;29.70;52.00;;;;;;5053409;28;20448;-87
2022/10/04 11:30:39;;;;;;;6.47;4.50;;;28.30;54.50;;;;;;5053652;28;20979;-87
2022/10/04 11:33:39;;;;;;;4.40;3.83;;;28.40;55.40;;;;;;5053448;28;21013;-87
2022/10/04 11:36:27;;;;;;;4.93;3.23;;;27.60;54.90;;;;;;5062522;28;20476;-87
2022/10/04 11:39:09;;;;;;;4.37;3.60;;;27.70;55.90;;;;;;5058027;28;20445;-87
2022/10/04 11:41:51;;;;;;;4.77;4.00;;;28.10;54.40;;;;;;5058978;28;20453;-87
2022/10/04 11:44:42;;;;;;;5.60;3.97;;;27.60;55.00;;;;;;5058331;28;21099;-87
2022/10/04 11:47:21;;;;;;;4.40;4.00;;;28.20;55.40;;;;;;5057684;28;20460;-87
2022/10/04 11:50:08;;;;;;;3.77;3.47;;;27.70;55.50;;;;;;5058218;28;20467;-87
2022/10/04 11:53:05;;;;;;;4.67;3.37;;;27.90;55.60;;;;;;5057788;28;20448;-88
2022/10/04 11:55:53;;;;;;;5.03;3.80;;;28.20;55.50;;;;;;5080296;22;20509;-85
2022/10/04 11:58:31;;;;;;;5.90;3.90;;;28.80;55.50;;;;;;5049842;28;20452;-85
2022/10/04 12:01:30;;;;;;;5.03;3.70;;;29.10;54.30;;;;;;5043438;28;20465;-85
2022/10/04 12:04:22;;;;;;;7.77;3.93;;;28.60;54.60;;;;;;5042126;28;20462;-84
2022/10/04 12:07:07;;;;;;;6.53;3.90;;;29.50;54.90;;;;;;5040694;28;20815;-86
2022/10/04 12:09:41;;;;;;;5.60;4.60;;;30.80;51.60;;;;;;5042475;28;20855;-85
2022/10/04 12:12:37;;;;;;;5.10;3.93;;;30.00;51.90;;;;;;5041841;28;20452;-85
2022/10/04 12:15:37;;;;;;;6.10;3.63;;;30.10;52.00;;;;;;5042879;28;20517;-85
2022/10/04 12:18:48;;;;;;;5.07;3.70;;;29.60;52.20;;;;;;5027387;28;20481;-84
2022/10/04 12:21:42;;;;;;;5.00;3.37;;;29.40;53.60;;;;;;5041668;28;20442;-86
2022/10/04 12:24:32;;;;;;;6.50;4.00;;;29.90;53.10;;;;;;5040718;28;20461;-85
2022/10/04 12:27:24;;;;;;;4.50;3.03;;;29.50;53.20;;;;;;5046643;28;20437;-86
2022/10/04 12:30:20;;;;;;;6.20;3.50;;;29.70;52.80;;;;;;5045001;28;20453;-84
2022/10/04 12:32:56;;;;;;;6.97;4.17;;;28.20;54.00;;;;;;5028687;28;20510;-85
2022/10/04 12:35:30;;;;;;;4.13;3.43;;;27.50;56.20;;;;;;5033764;28;20485;-86
2022/10/04 12:38:27;;;;;;;6.43;4.00;;;26.20;57.40;;;;;;5031666;28;20458;-86
2022/10/04 12:41:03;;;;;;;6.53;4.20;;;25.30;59.80;;;;;;5036910;28;20469;-85
2022/10/04 12:43:39;;;;;;;6.20;3.83;;;25.20;60.70;;;;;;5039973;28;20921;-85
2022/10/04 12:46:18;;;;;;;5.37;4.13;;;25.60;61.40;;;;;;5029530;28;20599;-85
2022/10/04 12:49:03;;;;;;;5.20;3.40;;;25.90;59.90;;;;;;5041371;28;20442;-85
2022/10/04 12:51:42;;;;;;;4.20;3.57;;;26.50;59.30;;;;;;5028091;28;20449;-84
2022/10/04 12:54:27;;;;;;;3.87;3.27;;;27.40;58.70;;;;;;5029412;28;20537;-86
2022/10/04 12:57:02;;;;;;;5.60;2.73;;;27.50;56.40;;;;;;5039609;28;20517;-85
2022/10/04 12:59:54;;;;;;;6.10;3.30;;;26.70;59.20;;;;;;5026842;28;20456;-86
2022/10/04 13:02:44;;;;;;;4.27;3.33;;;26.30;59.40;;;;;;5031177;28;20444;-86
2022/10/04 13:05:21;;;;;;;4.07;3.47;;;26.40;59.00;;;;;;5035160;28;20469;-85
2022/10/04 13:08:04;;;;;;;4.97;3.30;;;27.20;58.00;;;;;;5040731;28;20537;-86
2022/10/04 13:10:44;;;;;;;6.50;3.73;;;27.60;57.30;;;;;;5030102;28;20441;-85
2022/10/04 13:13:40;;;;;;;3.63;3.07;;;27.60;57.40;;;;;;5033324;28;20446;-85
2022/10/04 13:16:21;;;;;;;5.73;3.17;;;26.80;57.90;;;;;;5039965;28;20535;-86
2022/10/04 13:18:58;;;;;;;4.10;2.77;;;25.80;59.60;;;;;;5032423;28;21040;-85
2022/10/04 13:21:57;;;;;;;3.90;3.10;;;25.20;61.10;;;;;;5034437;28;20475;-85
2022/10/04 13:24:31;;;;;;;7.50;4.20;;;25.40;61.30;;;;;;5025627;28;20469;-85
2022/10/04 13:27:03;;;;;;;6.77;3.60;;;25.60;61.10;;;;;;5033628;28;20936;-86
2022/10/04 13:29:35;;;;;;;4.63;3.40;;;25.50;61.80;;;;;;5031503;28;20451;-86
2022/10/04 13:32:11;;;;;;;5.77;3.13;;;24.90;63.50;;;;;;5040462;28;20452;-84
2022/10/04 13:34:47;;;;;;;5.17;3.80;;;24.50;64.70;;;;;;5046919;28;20466;-85
2022/10/04 13:37:25;;;;;;;4.50;3.43;;;23.90;65.10;;;;;;5031462;28;20479;-84
2022/10/04 13:40:22;;;;;;;5.50;3.97;;;23.50;66.70;;;;;;5025189;28;20466;-84
2022/10/04 13:43:07;;;;;;;8.00;3.80;;;23.30;67.50;;;;;;5023281;28;20440;-84
2022/10/04 13:45:44;;;;;;;6.10;3.80;;;23.20;67.70;;;;;;5019484;28;20477;-84
2022/10/04 13:48:47;;;;;;;5.50;3.90;;;23.00;68.50;;;;;;5025980;28;20454;-86
2022/10/04 13:51:25;;;;;;;6.60;4.20;;;22.80;69.20;;;;;;5014809;28;20466;-84
2022/10/04 13:56:59;;;;;;;4.67;3.83;;;23.20;67.50;;;;;;5054597;28;20500;-84
2022/10/04 13:59:40;;;;;;;5.27;3.13;;;23.20;67.70;;;;;;5056400;28;20960;-85
2022/10/04 14:02:45;;;;;;;5.00;3.37;;;23.30;67.10;;;;;;5058449;28;20453;-84